createdAt,value
2022-11-04T00:01:08.072Z,25.98
2022-11-04T00:03:31.701Z,25.65
2022-11-04T00:05:55.196Z,23.52
2022-11-04T00:08:26.361Z,20.52
2022-11-04T00:11:03.759Z,24.60
2022-11-04T00:13:30.135Z,23.50
2022-11-04T00:16:13.449Z,27.23
2022-11-04T00:18:37.701Z,25.15
2022-11-04T00:21:18.675Z,26.38
2022-11-04T00:24:01.157Z,25.25
2022-11-04T00:26:41.930Z,23.20
2022-11-04T00:29:05.598Z,29.00
2022-11-04T00:31:46.358Z,22.95
2022-11-04T00:34:10.058Z,25.08
2022-11-04T00:36:33.594Z,21.13
2022-11-04T00:38:59.184Z,26.58
2022-11-04T00:41:30.419Z,28.70
2022-11-04T00:43:54.307Z,22.90
2022-11-04T00:46:17.834Z,23.33
2022-11-04T00:48:41.437Z,27.70
2022-11-04T00:51:05.111Z,31.88
2022-11-04T00:53:28.765Z,27.58
2022-11-04T00:55:53.726Z,28.83
2022-11-04T00:58:17.297Z,25.17
2022-11-04T01:00:40.846Z,28.27
2022-11-04T01:03:04.441Z,27.30
2022-11-04T01:05:28.391Z,31.85
2022-11-04T01:07:51.980Z,31.48
2022-11-04T01:10:15.611Z,32.25
2022-11-04T01:12:40.613Z,28.50
2022-11-04T01:15:04.249Z,31.10
2022-11-04T01:17:27.944Z,26.42
2022-11-04T01:19:51.450Z,26.85
2022-11-04T01:22:15.020Z,29.95
2022-11-04T01:24:38.580Z,30.90
2022-11-04T01:27:02.167Z,29.20
2022-11-04T01:29:27.356Z,30.42
2022-11-04T01:31:50.958Z,30.50
2022-11-04T01:34:14.491Z,30.25
2022-11-04T01:36:38.104Z,34.22
2022-11-04T01:39:01.606Z,27.88
2022-11-04T01:41:28.399Z,26.70
2022-11-04T01:43:54.389Z,31.52
2022-11-04T01:46:28.669Z,27.02
2022-11-04T01:48:54.036Z,32.15
2022-11-04T01:51:17.644Z,28.98
2022-11-04T01:53:44.870Z,28.17
2022-11-04T01:56:12.998Z,29.35
2022-11-04T01:58:36.971Z,29.65
2022-11-04T02:01:00.725Z,27.48
2022-11-04T02:03:30.510Z,33.15
2022-11-04T02:05:55.501Z,36.03
2022-11-04T02:08:19.875Z,29.55
2022-11-04T02:10:50.229Z,30.33
2022-11-04T02:13:12.990Z,29.67
2022-11-04T02:15:45.874Z,29.05
2022-11-04T02:18:33.699Z,34.55
2022-11-04T02:21:45.021Z,37.67
2022-11-04T02:24:49.758Z,32.00
2022-11-04T02:27:47.312Z,31.90
2022-11-04T02:30:15.142Z,27.92
2022-11-04T02:33:15.133Z,29.27
2022-11-04T02:35:45.925Z,32.55
2022-11-04T02:38:19.897Z,28.00
2022-11-04T02:40:51.524Z,32.95
2022-11-04T02:43:23.551Z,29.63
2022-11-04T02:45:50.647Z,27.67
2022-11-04T02:48:22.772Z,31.67
2022-11-04T02:50:52.100Z,38.13
2022-11-04T02:53:21.675Z,33.47
2022-11-04T02:55:48.564Z,28.60
2022-11-04T02:58:17.302Z,35.78
2022-11-04T03:00:43.366Z,33.78
2022-11-04T03:03:14.205Z,30.95
2022-11-04T03:05:41.250Z,31.52
2022-11-04T03:08:10.802Z,32.08
2022-11-04T03:10:39.841Z,30.38
2022-11-04T03:13:13.148Z,31.33
2022-11-04T03:15:39.143Z,35.03
2022-11-04T03:18:14.845Z,37.65
2022-11-04T03:20:40.073Z,34.25
2022-11-04T03:23:03.973Z,40.85
2022-11-04T03:25:33.505Z,38.00
2022-11-04T03:28:05.266Z,38.08
2022-11-04T03:30:39.931Z,40.35
2022-11-04T03:33:10.507Z,42.22
2022-11-04T03:35:35.225Z,39.95
2022-11-04T03:37:59.571Z,40.75
2022-11-04T03:40:23.987Z,38.33
2022-11-04T03:42:57.019Z,35.38
2022-11-04T03:45:20.975Z,36.13
2022-11-04T03:47:45.300Z,42.92
2022-11-04T03:50:17.826Z,33.65
2022-11-04T03:52:41.820Z,38.42
2022-11-04T03:55:06.477Z,45.00
2022-11-04T03:57:47.510Z,36.88
2022-11-04T04:00:14.597Z,40.60
2022-11-04T04:03:02.712Z,38.75
2022-11-04T04:05:31.332Z,35.20
2022-11-04T04:08:21.365Z,33.70
2022-11-04T04:10:54.352Z,34.70
2022-11-04T04:13:31.852Z,31.02
2022-11-04T04:16:01.577Z,34.78
2022-11-04T04:18:33.240Z,34.17
2022-11-04T04:21:03.252Z,31.75
2022-11-04T04:23:44.766Z,33.72
2022-11-04T04:26:28.765Z,36.65
2022-11-04T04:28:53.682Z,36.67
2022-11-04T04:31:39.346Z,36.60
2022-11-04T04:34:03.166Z,36.42
2022-11-04T04:36:29.269Z,34.55
2022-11-04T04:39:18.765Z,37.13
2022-11-04T04:42:02.066Z,36.35
2022-11-04T04:44:45.077Z,37.40
2022-11-04T04:47:10.688Z,33.25
2022-11-04T04:49:36.134Z,34.83
2022-11-04T04:52:02.171Z,36.95
2022-11-04T04:54:25.813Z,38.85
2022-11-04T04:56:49.377Z,33.25
2022-11-04T04:59:12.873Z,36.42
2022-11-04T05:01:36.504Z,32.35
2022-11-04T05:04:00.154Z,33.65
2022-11-04T05:06:23.933Z,29.15
2022-11-04T05:08:48.829Z,32.72
2022-11-04T05:11:12.709Z,35.40
2022-11-04T05:13:36.289Z,30.77
2022-11-04T05:16:05.945Z,35.90
2022-11-04T05:18:29.531Z,36.65
2022-11-04T05:20:53.102Z,30.70
2022-11-04T05:23:16.721Z,33.33
2022-11-04T05:25:43.021Z,29.83
2022-11-04T05:28:07.310Z,27.73
2022-11-04T05:30:31.136Z,33.83
2022-11-04T05:32:58.408Z,30.70
2022-11-04T05:35:25.307Z,31.35
2022-11-04T05:37:48.903Z,30.73
2022-11-04T05:40:13.683Z,33.85
2022-11-04T05:42:38.590Z,29.92
2022-11-04T05:45:02.142Z,28.60
2022-11-04T05:47:25.672Z,30.40
2022-11-04T05:49:49.237Z,35.60
2022-11-04T05:52:12.781Z,34.30
2022-11-04T05:54:38.518Z,33.55
2022-11-04T05:57:02.098Z,35.25
2022-11-04T05:59:27.021Z,28.60
2022-11-04T06:01:51.466Z,34.58
2022-11-04T06:04:18.778Z,33.40
2022-11-04T06:06:42.733Z,35.40
2022-11-04T06:09:06.399Z,30.23
2022-11-04T06:11:31.546Z,30.33
2022-11-04T06:13:57.102Z,33.65
2022-11-04T06:16:22.118Z,36.58
2022-11-04T06:18:45.657Z,35.97
2022-11-04T06:21:24.925Z,34.85
2022-11-04T06:23:48.584Z,36.47
2022-11-04T06:26:13.496Z,34.45
2022-11-04T06:28:37.158Z,30.65
2022-11-04T06:31:02.605Z,37.08
2022-11-04T06:33:30.445Z,26.38
2022-11-04T06:35:59.557Z,34.35
2022-11-04T06:38:23.134Z,34.88
2022-11-04T06:40:46.704Z,34.50
2022-11-04T06:43:10.554Z,32.25
2022-11-04T06:45:34.425Z,32.88
2022-11-04T06:47:57.989Z,32.65
2022-11-04T06:50:23.318Z,31.73
2022-11-04T06:52:46.879Z,36.90
2022-11-04T06:55:11.347Z,35.03
2022-11-04T06:57:34.934Z,36.47
2022-11-04T06:59:58.603Z,34.95
2022-11-04T07:02:22.267Z,34.83
2022-11-04T07:04:45.894Z,34.88
2022-11-04T07:07:11.124Z,37.78
2022-11-04T07:09:35.421Z,37.42
2022-11-04T07:11:58.929Z,37.20
2022-11-04T07:14:22.558Z,37.47
2022-11-04T07:16:46.151Z,35.55
2022-11-04T07:19:09.839Z,39.80
2022-11-04T07:21:33.681Z,41.70
2022-11-04T07:23:58.622Z,39.95
2022-11-04T07:26:22.161Z,43.90
2022-11-04T07:28:46.024Z,42.13
2022-11-04T07:31:12.938Z,45.20
2022-11-04T07:33:36.991Z,43.55
2022-11-04T07:36:05.041Z,52.80
2022-11-04T07:38:28.601Z,45.67
2022-11-04T07:40:53.577Z,48.50
2022-11-04T07:43:17.534Z,51.03
2022-11-04T07:45:42.402Z,50.67
2022-11-04T07:48:06.682Z,53.60
2022-11-04T07:50:30.611Z,45.63
2022-11-04T07:52:54.197Z,52.80
2022-11-04T07:55:18.644Z,46.28
2022-11-04T07:57:43.586Z,49.30
2022-11-04T08:00:08.605Z,43.83
2022-11-04T08:02:36.291Z,44.58
2022-11-04T08:04:59.942Z,46.53
2022-11-04T08:07:23.507Z,44.42
2022-11-04T08:09:47.072Z,46.45
2022-11-04T08:12:10.697Z,44.00
2022-11-04T08:14:35.663Z,48.67
2022-11-04T08:17:00.073Z,42.30
2022-11-04T08:19:23.618Z,48.03
2022-11-04T08:21:47.393Z,43.95
2022-11-04T08:24:10.917Z,37.85
2022-11-04T08:26:34.572Z,43.53
2022-11-04T08:28:59.394Z,39.88
2022-11-04T08:31:26.607Z,45.00
2022-11-04T08:33:50.347Z,46.35
2022-11-04T08:36:17.829Z,37.10
2022-11-04T08:38:41.517Z,46.42
2022-11-04T08:41:07.830Z,37.88
2022-11-04T08:43:31.676Z,37.70
2022-11-04T08:45:55.684Z,38.30
2022-11-04T08:48:20.686Z,40.28
2022-11-04T08:50:45.104Z,32.13
2022-11-04T08:53:08.873Z,33.22
2022-11-04T08:55:33.696Z,31.25
2022-11-04T08:57:57.399Z,32.08
2022-11-04T09:00:21.281Z,33.22
2022-11-04T09:02:44.872Z,29.08
2022-11-04T09:05:10.316Z,34.83
2022-11-04T09:07:35.437Z,31.88
2022-11-04T09:09:59.020Z,30.38
2022-11-04T09:12:22.703Z,32.35
2022-11-04T09:14:46.241Z,30.55
2022-11-04T09:17:09.773Z,34.63
2022-11-04T09:19:33.709Z,29.02
2022-11-04T09:21:58.673Z,27.83
2022-11-04T09:24:22.287Z,26.70
2022-11-04T09:26:45.897Z,28.85
2022-11-04T09:29:09.911Z,25.48
2022-11-04T09:31:33.597Z,30.00
2022-11-04T09:33:57.598Z,29.08
2022-11-04T09:36:21.192Z,28.00
2022-11-04T09:38:46.281Z,31.70
2022-11-04T09:41:52.720Z,30.20
2022-11-04T09:44:27.211Z,29.45
2022-11-04T09:46:54.279Z,26.10
2022-11-04T09:49:18.144Z,27.00
2022-11-04T09:51:54.152Z,26.77
2022-11-04T09:54:24.274Z,23.77
2022-11-04T09:56:51.356Z,24.75
2022-11-04T09:59:26.527Z,22.40
2022-11-04T10:02:03.796Z,23.90
2022-11-04T10:04:46.033Z,23.23
2022-11-04T10:07:26.989Z,25.35
2022-11-04T10:10:04.399Z,27.27
2022-11-04T10:12:48.693Z,21.88
2022-11-04T10:15:38.826Z,25.25
2022-11-04T10:18:19.466Z,19.67
2022-11-04T10:20:56.381Z,19.83
2022-11-04T10:23:24.214Z,20.73
2022-11-04T10:25:54.941Z,22.08
2022-11-04T10:28:21.479Z,20.70
2022-11-04T10:30:48.986Z,21.45
2022-11-04T10:33:21.414Z,22.10
2022-11-04T10:35:49.985Z,23.88
2022-11-04T10:38:20.856Z,20.17
2022-11-04T10:40:51.655Z,17.95
2022-11-04T10:43:22.702Z,19.60
2022-11-04T10:45:56.647Z,18.95
2022-11-04T10:48:28.905Z,19.98
2022-11-04T10:50:57.277Z,17.85
2022-11-04T10:53:24.827Z,18.95
2022-11-04T10:55:58.186Z,19.95
2022-11-04T10:58:26.094Z,19.52
2022-11-04T11:00:51.739Z,21.75
2022-11-04T11:03:34.972Z,20.33
2022-11-04T11:06:22.760Z,19.10
2022-11-04T11:08:47.687Z,21.13
2022-11-04T11:11:15.380Z,18.63
2022-11-04T11:13:42.470Z,16.58
2022-11-04T11:16:11.802Z,21.65
2022-11-04T11:18:37.225Z,16.92
2022-11-04T11:21:14.246Z,19.65
2022-11-04T11:23:44.314Z,20.13
2022-11-04T11:26:11.814Z,18.65
2022-11-04T11:28:38.925Z,19.25
2022-11-04T11:31:06.722Z,18.67
2022-11-04T11:33:31.904Z,19.15
2022-11-04T11:35:58.247Z,20.05
2022-11-04T11:38:25.690Z,18.08
2022-11-04T11:41:18.775Z,19.00
2022-11-04T11:43:41.274Z,18.85
2022-11-04T11:46:05.430Z,20.00
2022-11-04T11:48:36.566Z,18.35
2022-11-04T11:51:01.084Z,17.25
2022-11-04T11:53:25.538Z,20.48
2022-11-04T11:55:57.302Z,20.48
2022-11-04T12:01:25.571Z,17.95
2022-11-04T12:09:39.754Z,21.08
2022-11-04T12:12:19.385Z,21.13
2022-11-04T12:14:55.590Z,20.13
2022-11-04T12:17:36.886Z,17.92
2022-11-04T12:20:17.168Z,22.30
2022-11-04T12:22:50.633Z,18.23
2022-11-04T12:25:24.421Z,19.55
2022-11-04T12:27:57.837Z,20.67
2022-11-04T12:30:31.166Z,15.77
2022-11-04T12:33:18.917Z,20.55
2022-11-04T12:35:57.237Z,19.63
2022-11-04T12:38:44.307Z,15.55
2022-11-04T12:41:41.888Z,19.52
2022-11-04T12:44:10.662Z,18.33
2022-11-04T12:46:41.762Z,17.85
2022-11-04T12:49:35.434Z,17.05
2022-11-04T12:52:11.580Z,18.20
2022-11-04T12:54:59.876Z,15.75
2022-11-04T12:57:34.574Z,18.20
2022-11-04T13:00:11.363Z,16.58
2022-11-04T13:02:41.303Z,18.60
2022-11-04T13:05:19.980Z,17.90
2022-11-04T13:07:51.549Z,15.95
2022-11-04T13:10:22.865Z,22.08
2022-11-04T13:12:48.767Z,15.43
2022-11-04T13:15:19.838Z,15.95
2022-11-04T13:17:47.204Z,16.77
2022-11-04T13:20:34.531Z,19.33
2022-11-04T13:23:03.445Z,20.17
2022-11-04T13:25:34.874Z,20.48
2022-11-04T13:27:59.940Z,20.70
2022-11-04T13:30:32.647Z,20.70
2022-11-04T13:33:02.086Z,25.67
2022-11-04T13:35:38.304Z,23.48
2022-11-04T13:38:08.825Z,25.13
2022-11-04T13:40:43.664Z,28.00
2022-11-04T13:43:40.356Z,26.27
2022-11-04T13:46:05.296Z,35.15
2022-11-04T13:48:33.301Z,25.23
2022-11-04T13:51:02.378Z,28.27
2022-11-04T13:53:44.460Z,25.80
2022-11-04T13:56:31.537Z,25.88
2022-11-04T13:58:54.738Z,35.95
2022-11-04T14:01:31.129Z,32.05
2022-11-04T14:04:00.290Z,29.58
2022-11-04T14:06:53.273Z,32.40
2022-11-04T14:09:37.678Z,32.17
2022-11-04T14:12:35.633Z,26.73
2022-11-04T14:15:11.688Z,30.58
2022-11-04T14:18:05.880Z,34.58
2022-11-04T14:20:36.979Z,28.13
2022-11-04T14:23:03.467Z,30.77
2022-11-04T14:25:34.929Z,32.58
2022-11-04T14:28:01.761Z,22.40
2022-11-04T14:30:43.408Z,25.70
2022-11-04T14:33:22.972Z,32.45
2022-11-04T14:35:46.751Z,28.42
2022-11-04T14:38:27.369Z,30.52
2022-11-04T14:40:54.486Z,29.50
2022-11-04T14:43:33.670Z,30.77
2022-11-04T14:45:58.266Z,27.40
2022-11-04T14:48:22.445Z,29.05
2022-11-04T14:50:52.377Z,27.25
2022-11-04T14:53:25.162Z,28.60
2022-11-04T14:55:48.951Z,29.17
2022-11-04T14:58:25.540Z,25.25
2022-11-04T15:00:57.142Z,26.02
2022-11-04T15:04:09.415Z,23.83
2022-11-04T15:06:13.512Z,27.88
2022-11-04T15:08:44.845Z,25.73
2022-11-04T15:11:17.461Z,27.50
2022-11-04T15:13:47.622Z,23.65
2022-11-04T15:16:16.453Z,31.80
2022-11-04T15:18:41.394Z,28.27
2022-11-04T15:21:06.563Z,26.95
2022-11-04T15:23:33.252Z,26.27
2022-11-04T15:25:59.969Z,28.20
2022-11-04T15:28:26.767Z,31.65
2022-11-04T15:31:07.434Z,25.35
2022-11-04T15:33:32.445Z,30.80
2022-11-04T15:35:57.587Z,31.15
2022-11-04T15:38:21.501Z,38.90
2022-11-04T15:40:46.405Z,48.80
2022-11-04T15:43:12.090Z,28.35
2022-11-04T15:45:42.612Z,33.00
2022-11-04T15:48:26.605Z,26.13
2022-11-04T15:51:01.390Z,29.33
2022-11-04T15:53:25.143Z,29.00
2022-11-04T15:55:49.825Z,34.33
2022-11-04T15:58:17.191Z,35.38
2022-11-04T16:00:41.290Z,29.77
2022-11-04T16:03:05.421Z,33.10
2022-11-04T16:05:31.300Z,29.20
2022-11-04T16:07:59.511Z,33.65
2022-11-04T16:10:31.905Z,35.70
2022-11-04T16:12:58.625Z,32.97
2022-11-04T16:15:42.319Z,31.08
2022-11-04T16:18:08.103Z,38.70
2022-11-04T16:20:32.526Z,36.13
2022-11-04T16:23:00.206Z,30.45
2022-11-04T16:25:25.597Z,32.15
2022-11-04T16:27:49.426Z,37.78
2022-11-04T16:30:20.901Z,34.67
2022-11-04T16:32:49.064Z,31.00
2022-11-04T16:35:23.917Z,31.15
2022-11-04T16:37:47.710Z,34.92
2022-11-04T16:40:11.942Z,34.42
2022-11-04T16:42:35.518Z,30.77
2022-11-04T16:45:03.320Z,38.28
2022-11-04T16:47:28.590Z,32.17
2022-11-04T16:49:53.505Z,33.25
2022-11-04T16:52:25.556Z,30.67
2022-11-04T16:54:49.457Z,31.23
2022-11-04T16:57:15.656Z,28.50
2022-11-04T16:59:40.093Z,25.50
2022-11-04T17:02:22.417Z,28.08
2022-11-04T17:04:46.350Z,31.00
2022-11-04T17:07:11.269Z,30.95
2022-11-04T17:09:34.897Z,36.10
2022-11-04T17:11:58.489Z,28.33
2022-11-04T17:14:22.438Z,28.23
2022-11-04T17:16:46.109Z,33.83
2022-11-04T17:19:16.245Z,28.15
2022-11-04T17:21:40.640Z,33.50
2022-11-04T17:24:06.489Z,26.63
2022-11-04T17:26:30.042Z,24.73
2022-11-04T17:28:53.591Z,28.77
2022-11-04T17:31:20.999Z,30.73
2022-11-04T17:33:44.622Z,25.15
2022-11-04T17:36:10.605Z,29.05
2022-11-04T17:38:34.169Z,28.33
2022-11-04T17:41:16.586Z,31.23
2022-11-04T17:43:57.477Z,24.58
2022-11-04T17:46:37.916Z,34.00
2022-11-04T17:49:02.115Z,30.63
2022-11-04T17:51:26.022Z,32.38
2022-11-04T17:53:50.062Z,31.50
2022-11-04T17:56:17.753Z,43.58
2022-11-04T17:58:41.326Z,30.92
2022-11-04T18:01:08.817Z,38.10
2022-11-04T18:03:32.551Z,29.38
2022-11-04T18:05:59.978Z,36.15
2022-11-04T18:08:23.616Z,35.75
2022-11-04T18:10:47.167Z,38.45
2022-11-04T18:13:12.519Z,33.28
2022-11-04T18:15:36.298Z,34.97
2022-11-04T18:17:59.935Z,37.88
2022-11-04T18:20:23.510Z,40.72
2022-11-04T18:22:47.422Z,37.88
2022-11-04T18:25:12.318Z,38.25
2022-11-04T18:27:36.176Z,37.25
2022-11-04T18:30:01.122Z,40.42
2022-11-04T18:32:24.857Z,43.05
2022-11-04T18:34:50.143Z,30.27
2022-11-04T18:37:13.766Z,36.90
2022-11-04T18:39:38.477Z,32.63
2022-11-04T18:42:02.215Z,34.92
2022-11-04T18:44:25.989Z,33.10
2022-11-04T18:46:53.019Z,31.50
2022-11-04T18:49:17.880Z,33.63
2022-11-04T18:51:41.729Z,32.78
2022-11-04T18:54:07.208Z,32.50
2022-11-04T18:56:30.859Z,31.90
2022-11-04T18:58:54.371Z,30.83
2022-11-04T19:01:22.421Z,30.75
2022-11-04T19:03:48.026Z,31.25
2022-11-04T19:06:17.335Z,31.27
2022-11-04T19:08:46.482Z,27.98
2022-11-04T19:11:17.751Z,27.27
2022-11-04T19:13:41.553Z,31.90
2022-11-04T19:16:07.309Z,29.38
2022-11-04T19:18:30.878Z,37.03
2022-11-04T19:20:56.701Z,28.67
2022-11-04T19:23:20.554Z,29.67
2022-11-04T19:25:44.469Z,34.35
2022-11-04T19:28:32.603Z,36.22
2022-11-04T19:30:59.922Z,34.95
2022-11-04T19:33:23.545Z,33.75
2022-11-04T19:35:47.098Z,36.40
2022-11-04T19:38:12.409Z,37.67
2022-11-04T19:40:36.157Z,32.97
2022-11-04T19:43:10.657Z,31.50
2022-11-04T19:45:34.368Z,29.20
2022-11-04T19:47:58.118Z,33.97
2022-11-04T19:50:22.393Z,34.67
2022-11-04T19:52:45.952Z,32.58
2022-11-04T19:55:11.468Z,31.17
2022-11-04T19:57:35.349Z,34.05
2022-11-04T19:59:58.963Z,38.30
2022-11-04T20:02:23.201Z,39.00
2022-11-04T20:04:47.850Z,39.80
2022-11-04T20:07:11.404Z,35.35
2022-11-04T20:09:34.971Z,36.10
2022-11-04T20:12:17.373Z,38.17
2022-11-04T20:14:40.958Z,37.03
2022-11-04T20:17:06.384Z,40.05
2022-11-04T20:19:30.006Z,40.47
2022-11-04T20:21:54.133Z,33.35
2022-11-04T20:24:17.759Z,36.90
2022-11-04T20:26:44.510Z,39.88
2022-11-04T20:29:09.727Z,35.13
2022-11-04T20:31:37.090Z,39.03
2022-11-04T20:34:02.487Z,43.67
2022-11-04T20:36:29.052Z,36.25
2022-11-04T20:38:57.713Z,41.90
2022-11-04T20:41:21.258Z,41.65
2022-11-04T20:43:44.925Z,35.38
2022-11-04T20:46:14.077Z,35.67
2022-11-04T20:48:38.024Z,36.33
2022-11-04T20:51:08.080Z,35.03
2022-11-04T20:53:31.742Z,33.40
2022-11-04T20:55:55.274Z,37.30
2022-11-04T20:58:18.915Z,39.95
2022-11-04T21:00:42.551Z,34.38
2022-11-04T21:03:07.523Z,42.25
2022-11-04T21:05:31.246Z,39.72
2022-11-04T21:07:54.795Z,39.50
2022-11-04T21:10:23.899Z,41.15
2022-11-04T21:12:48.505Z,40.90
2022-11-04T21:15:35.587Z,42.35
2022-11-04T21:17:59.158Z,40.92
2022-11-04T21:20:24.070Z,46.90
2022-11-04T21:22:47.844Z,42.47
2022-11-04T21:25:11.448Z,39.22
2022-11-04T21:27:35.101Z,38.75
2022-11-04T21:29:58.639Z,42.92
2022-11-04T21:32:22.322Z,40.00
2022-11-04T21:34:45.835Z,37.53
2022-11-04T21:37:10.784Z,40.83
2022-11-04T21:39:34.334Z,40.58
2022-11-04T21:41:57.909Z,40.17
2022-11-04T21:44:21.484Z,31.52
2022-11-04T21:46:45.173Z,38.25
2022-11-04T21:49:08.753Z,41.35
2022-11-04T21:51:34.474Z,33.95
2022-11-04T21:54:00.395Z,38.08
2022-11-04T21:56:27.012Z,35.60
2022-11-04T21:58:50.685Z,36.70
2022-11-04T22:01:17.860Z,39.00
2022-11-04T22:03:41.739Z,40.70
2022-11-04T22:06:07.842Z,37.00
2022-11-04T22:08:32.045Z,42.13
2022-11-04T22:10:57.651Z,38.65
2022-11-04T22:13:23.289Z,43.25
2022-11-04T22:16:01.781Z,35.28
2022-11-04T22:18:25.435Z,45.53
2022-11-04T22:20:48.958Z,41.30
2022-11-04T22:23:12.883Z,46.30
2022-11-04T22:25:36.661Z,36.53
2022-11-04T22:28:01.602Z,42.28
2022-11-04T22:30:25.496Z,40.22
2022-11-04T22:32:49.108Z,41.63
2022-11-04T22:35:12.608Z,37.50
2022-11-04T22:37:36.216Z,44.15
2022-11-04T22:39:59.882Z,38.17
2022-11-04T22:42:23.463Z,47.38
2022-11-04T22:44:48.346Z,38.08
2022-11-04T22:47:11.978Z,46.70
2022-11-04T22:49:36.353Z,38.67
2022-11-04T22:51:59.944Z,42.20
2022-11-04T22:54:23.494Z,46.55
2022-11-04T22:56:47.089Z,33.38
2022-11-04T22:59:12.209Z,34.80
2022-11-04T23:01:37.245Z,38.38
2022-11-04T23:04:01.101Z,38.72
2022-11-04T23:06:26.433Z,32.88
2022-11-04T23:08:51.351Z,36.10
2022-11-04T23:11:37.481Z,40.65
2022-11-04T23:14:20.811Z,42.05
2022-11-04T23:17:05.431Z,33.30
2022-11-04T23:19:30.963Z,34.63
2022-11-04T23:22:11.976Z,31.92
2022-11-04T23:24:52.742Z,36.58
2022-11-04T23:27:36.488Z,29.55
2022-11-04T23:30:18.865Z,33.10
2022-11-04T23:32:44.248Z,28.67
2022-11-04T23:35:28.377Z,29.33
2022-11-04T23:37:59.529Z,31.20
2022-11-04T23:40:23.080Z,26.55
2022-11-04T23:42:46.577Z,33.40
2022-11-04T23:45:29.017Z,29.98
2022-11-04T23:48:14.653Z,29.35
2022-11-04T23:50:55.776Z,29.42
2022-11-04T23:53:38.917Z,36.25
2022-11-04T23:56:20.411Z,28.20
2022-11-04T23:59:01.757Z,27.52
